sensor_id;sensor_type;location;lat;lon;timestamp;P1;durP1;ratioP1;P2;durP2;ratioP2
38089;SDS011;23904;52.322;10.232;2023-05-27T00:02:04;18.67;;;6.70;;
38089;SDS011;23904;52.322;10.232;2023-05-27T00:04:29;17.50;;;7.22;;
38089;SDS011;23904;52.322;10.232;2023-05-27T00:06:55;25.90;;;6.90;;
38089;SDS011;23904;52.322;10.232;2023-05-27T00:09:20;26.88;;;7.70;;
38089;SDS011;23904;52.322;10.232;2023-05-27T00:11:46;24.08;;;7.75;;
38089;SDS011;23904;52.322;10.232;2023-05-27T00:14:12;20.45;;;6.40;;
38089;SDS011;23904;52.322;10.232;2023-05-27T00:16:37;24.48;;;8.13;;
38089;SDS011;23904;52.322;10.232;2023-05-27T00:19:03;25.90;;;7.65;;
38089;SDS011;23904;52.322;10.232;2023-05-27T00:21:29;25.38;;;7.43;;
38089;SDS011;23904;52.322;10.232;2023-05-27T00:23:54;26.38;;;8.25;;
38089;SDS011;23904;52.322;10.232;2023-05-27T00:26:22;20.45;;;7.47;;
38089;SDS011;23904;52.322;10.232;2023-05-27T00:28:48;27.95;;;6.93;;
38089;SDS011;23904;52.322;10.232;2023-05-27T00:31:14;23.30;;;6.88;;
38089;SDS011;23904;52.322;10.232;2023-05-27T00:33:40;21.70;;;6.32;;
38089;SDS011;23904;52.322;10.232;2023-05-27T00:36:05;15.63;;;6.90;;
38089;SDS011;23904;52.322;10.232;2023-05-27T00:38:31;20.63;;;7.15;;
38089;SDS011;23904;52.322;10.232;2023-05-27T00:40:57;24.58;;;7.07;;
38089;SDS011;23904;52.322;10.232;2023-05-27T00:43:26;26.38;;;7.78;;
38089;SDS011;23904;52.322;10.232;2023-05-27T00:45:52;29.67;;;8.18;;
38089;SDS011;23904;52.322;10.232;2023-05-27T00:48:17;20.55;;;6.55;;
38089;SDS011;23904;52.322;10.232;2023-05-27T00:50:43;25.85;;;7.53;;
38089;SDS011;23904;52.322;10.232;2023-05-27T00:53:08;21.40;;;6.82;;
38089;SDS011;23904;52.322;10.232;2023-05-27T00:55:34;27.42;;;7.35;;
38089;SDS011;23904;52.322;10.232;2023-05-27T00:58:01;29.63;;;9.40;;
38089;SDS011;23904;52.322;10.232;2023-05-27T01:00:28;20.75;;;6.78;;
38089;SDS011;23904;52.322;10.232;2023-05-27T01:02:54;21.75;;;7.95;;
38089;SDS011;23904;52.322;10.232;2023-05-27T01:05:20;21.50;;;6.63;;
38089;SDS011;23904;52.322;10.232;2023-05-27T01:10:45;22.48;;;7.40;;
38089;SDS011;23904;52.322;10.232;2023-05-27T01:13:16;23.15;;;8.23;;
38089;SDS011;23904;52.322;10.232;2023-05-27T01:16:09;23.25;;;8.18;;
38089;SDS011;23904;52.322;10.232;2023-05-27T01:21:13;19.60;;;7.38;;
38089;SDS011;23904;52.322;10.232;2023-05-27T01:23:46;22.20;;;7.57;;
38089;SDS011;23904;52.322;10.232;2023-05-27T01:26:13;17.95;;;6.93;;
38089;SDS011;23904;52.322;10.232;2023-05-27T01:28:40;26.98;;;8.05;;
38089;SDS011;23904;52.322;10.232;2023-05-27T01:31:10;25.27;;;7.43;;
38089;SDS011;23904;52.322;10.232;2023-05-27T01:33:48;20.10;;;7.53;;
38089;SDS011;23904;52.322;10.232;2023-05-27T01:36:28;24.08;;;7.55;;
38089;SDS011;23904;52.322;10.232;2023-05-27T01:39:00;19.83;;;7.55;;
38089;SDS011;23904;52.322;10.232;2023-05-27T01:41:28;30.40;;;8.80;;
38089;SDS011;23904;52.322;10.232;2023-05-27T01:43:55;22.17;;;7.75;;
38089;SDS011;23904;52.322;10.232;2023-05-27T01:46:21;20.48;;;7.25;;
38089;SDS011;23904;52.322;10.232;2023-05-27T01:48:47;24.85;;;8.10;;
38089;SDS011;23904;52.322;10.232;2023-05-27T01:51:12;31.95;;;8.30;;
38089;SDS011;23904;52.322;10.232;2023-05-27T01:53:38;31.45;;;8.55;;
38089;SDS011;23904;52.322;10.232;2023-05-27T01:56:03;24.02;;;7.78;;
38089;SDS011;23904;52.322;10.232;2023-05-27T01:58:29;30.15;;;9.38;;
38089;SDS011;23904;52.322;10.232;2023-05-27T02:00:55;29.55;;;7.90;;
38089;SDS011;23904;52.322;10.232;2023-05-27T02:03:20;26.30;;;8.57;;
38089;SDS011;23904;52.322;10.232;2023-05-27T02:05:46;24.60;;;7.95;;
38089;SDS011;23904;52.322;10.232;2023-05-27T02:08:12;23.48;;;7.07;;
38089;SDS011;23904;52.322;10.232;2023-05-27T02:10:37;24.17;;;7.07;;
38089;SDS011;23904;52.322;10.232;2023-05-27T02:13:03;25.88;;;8.35;;
38089;SDS011;23904;52.322;10.232;2023-05-27T02:15:28;27.67;;;8.57;;
38089;SDS011;23904;52.322;10.232;2023-05-27T02:17:54;23.30;;;8.20;;
38089;SDS011;23904;52.322;10.232;2023-05-27T02:20:21;20.98;;;8.30;;
38089;SDS011;23904;52.322;10.232;2023-05-27T02:22:48;24.08;;;8.80;;
38089;SDS011;23904;52.322;10.232;2023-05-27T02:25:15;23.65;;;8.32;;
38089;SDS011;23904;52.322;10.232;2023-05-27T02:27:40;20.73;;;6.97;;
38089;SDS011;23904;52.322;10.232;2023-05-27T02:30:08;31.75;;;8.38;;
38089;SDS011;23904;52.322;10.232;2023-05-27T02:32:35;23.73;;;7.57;;
38089;SDS011;23904;52.322;10.232;2023-05-27T02:35:01;27.52;;;8.27;;
38089;SDS011;23904;52.322;10.232;2023-05-27T02:37:27;24.48;;;8.27;;
38089;SDS011;23904;52.322;10.232;2023-05-27T02:39:53;25.77;;;7.70;;
38089;SDS011;23904;52.322;10.232;2023-05-27T02:42:20;18.65;;;8.07;;
38089;SDS011;23904;52.322;10.232;2023-05-27T02:44:45;25.50;;;8.00;;
38089;SDS011;23904;52.322;10.232;2023-05-27T02:47:11;27.70;;;7.57;;
38089;SDS011;23904;52.322;10.232;2023-05-27T02:49:37;25.70;;;8.25;;
38089;SDS011;23904;52.322;10.232;2023-05-27T02:52:02;30.63;;;8.57;;
38089;SDS011;23904;52.322;10.232;2023-05-27T02:54:28;26.55;;;9.23;;
38089;SDS011;23904;52.322;10.232;2023-05-27T02:56:54;23.35;;;8.95;;
38089;SDS011;23904;52.322;10.232;2023-05-27T02:59:19;18.02;;;8.60;;
38089;SDS011;23904;52.322;10.232;2023-05-27T03:01:45;26.17;;;8.35;;
38089;SDS011;23904;52.322;10.232;2023-05-27T03:04:10;25.33;;;9.18;;
38089;SDS011;23904;52.322;10.232;2023-05-27T03:06:36;27.92;;;8.27;;
38089;SDS011;23904;52.322;10.232;2023-05-27T03:09:02;32.88;;;9.27;;
38089;SDS011;23904;52.322;10.232;2023-05-27T03:11:28;28.73;;;8.68;;
38089;SDS011;23904;52.322;10.232;2023-05-27T03:13:54;21.42;;;8.10;;
38089;SDS011;23904;52.322;10.232;2023-05-27T03:16:20;35.63;;;8.98;;
38089;SDS011;23904;52.322;10.232;2023-05-27T03:18:45;31.92;;;9.20;;
38089;SDS011;23904;52.322;10.232;2023-05-27T03:21:11;18.70;;;8.18;;
38089;SDS011;23904;52.322;10.232;2023-05-27T03:23:37;24.23;;;8.35;;
38089;SDS011;23904;52.322;10.232;2023-05-27T03:26:03;23.45;;;8.45;;
38089;SDS011;23904;52.322;10.232;2023-05-27T03:28:29;23.83;;;9.25;;
38089;SDS011;23904;52.322;10.232;2023-05-27T03:30:55;23.60;;;8.20;;
38089;SDS011;23904;52.322;10.232;2023-05-27T03:33:21;20.33;;;8.65;;
38089;SDS011;23904;52.322;10.232;2023-05-27T03:35:50;23.75;;;9.00;;
38089;SDS011;23904;52.322;10.232;2023-05-27T03:38:16;29.98;;;9.00;;
38089;SDS011;23904;52.322;10.232;2023-05-27T03:40:41;26.20;;;8.52;;
38089;SDS011;23904;52.322;10.232;2023-05-27T03:43:07;28.65;;;9.50;;
38089;SDS011;23904;52.322;10.232;2023-05-27T03:45:32;23.55;;;8.57;;
38089;SDS011;23904;52.322;10.232;2023-05-27T03:47:58;31.33;;;10.85;;
38089;SDS011;23904;52.322;10.232;2023-05-27T03:50:23;24.30;;;9.30;;
38089;SDS011;23904;52.322;10.232;2023-05-27T03:52:49;29.02;;;8.55;;
38089;SDS011;23904;52.322;10.232;2023-05-27T03:55:15;27.10;;;9.55;;
38089;SDS011;23904;52.322;10.232;2023-05-27T03:57:45;30.23;;;10.38;;
38089;SDS011;23904;52.322;10.232;2023-05-27T04:00:11;23.50;;;8.68;;
38089;SDS011;23904;52.322;10.232;2023-05-27T04:02:37;27.52;;;9.00;;
38089;SDS011;23904;52.322;10.232;2023-05-27T04:05:04;25.85;;;8.05;;
38089;SDS011;23904;52.322;10.232;2023-05-27T04:07:30;23.17;;;8.85;;
38089;SDS011;23904;52.322;10.232;2023-05-27T04:09:56;36.17;;;9.18;;
38089;SDS011;23904;52.322;10.232;2023-05-27T04:12:22;21.20;;;8.20;;
38089;SDS011;23904;52.322;10.232;2023-05-27T04:14:49;25.17;;;8.25;;
38089;SDS011;23904;52.322;10.232;2023-05-27T04:17:15;21.02;;;8.20;;
38089;SDS011;23904;52.322;10.232;2023-05-27T04:19:42;25.05;;;9.05;;
38089;SDS011;23904;52.322;10.232;2023-05-27T04:22:08;22.02;;;8.80;;
38089;SDS011;23904;52.322;10.232;2023-05-27T04:24:33;28.30;;;10.35;;
38089;SDS011;23904;52.322;10.232;2023-05-27T04:26:59;26.67;;;9.45;;
38089;SDS011;23904;52.322;10.232;2023-05-27T04:29:26;25.35;;;7.93;;
38089;SDS011;23904;52.322;10.232;2023-05-27T04:31:52;25.92;;;8.90;;
38089;SDS011;23904;52.322;10.232;2023-05-27T04:34:17;26.33;;;7.95;;
38089;SDS011;23904;52.322;10.232;2023-05-27T04:36:43;17.40;;;7.88;;
38089;SDS011;23904;52.322;10.232;2023-05-27T04:39:14;31.55;;;9.68;;
38089;SDS011;23904;52.322;10.232;2023-05-27T04:41:40;27.23;;;8.25;;
38089;SDS011;23904;52.322;10.232;2023-05-27T04:44:06;24.50;;;8.05;;
38089;SDS011;23904;52.322;10.232;2023-05-27T04:46:32;26.60;;;8.48;;
38089;SDS011;23904;52.322;10.232;2023-05-27T04:48:58;21.35;;;7.28;;
38089;SDS011;23904;52.322;10.232;2023-05-27T04:51:24;24.27;;;8.55;;
38089;SDS011;23904;52.322;10.232;2023-05-27T04:53:50;26.58;;;8.80;;
38089;SDS011;23904;52.322;10.232;2023-05-27T04:56:16;23.45;;;8.60;;
38089;SDS011;23904;52.322;10.232;2023-05-27T04:58:42;26.33;;;7.90;;
38089;SDS011;23904;52.322;10.232;2023-05-27T05:01:11;21.02;;;8.18;;
38089;SDS011;23904;52.322;10.232;2023-05-27T05:03:42;28.77;;;8.38;;
38089;SDS011;23904;52.322;10.232;2023-05-27T05:06:18;19.05;;;8.18;;
38089;SDS011;23904;52.322;10.232;2023-05-27T05:08:45;25.55;;;9.70;;
38089;SDS011;23904;52.322;10.232;2023-05-27T05:11:12;23.08;;;8.45;;
38089;SDS011;23904;52.322;10.232;2023-05-27T05:13:39;23.52;;;8.38;;
38089;SDS011;23904;52.322;10.232;2023-05-27T05:16:05;22.55;;;8.98;;
38089;SDS011;23904;52.322;10.232;2023-05-27T05:18:31;23.70;;;8.20;;
38089;SDS011;23904;52.322;10.232;2023-05-27T05:20:56;19.55;;;8.43;;
38089;SDS011;23904;52.322;10.232;2023-05-27T05:23:22;22.15;;;8.02;;
38089;SDS011;23904;52.322;10.232;2023-05-27T05:25:47;28.63;;;8.77;;
38089;SDS011;23904;52.322;10.232;2023-05-27T05:28:19;27.27;;;9.15;;
38089;SDS011;23904;52.322;10.232;2023-05-27T05:30:45;23.85;;;8.30;;
38089;SDS011;23904;52.322;10.232;2023-05-27T05:33:10;23.95;;;9.43;;
38089;SDS011;23904;52.322;10.232;2023-05-27T05:35:36;22.17;;;7.80;;
38089;SDS011;23904;52.322;10.232;2023-05-27T05:38:01;21.23;;;9.23;;
38089;SDS011;23904;52.322;10.232;2023-05-27T05:40:27;28.02;;;9.18;;
38089;SDS011;23904;52.322;10.232;2023-05-27T05:42:52;25.77;;;8.98;;
38089;SDS011;23904;52.322;10.232;2023-05-27T05:45:18;37.10;;;10.85;;
38089;SDS011;23904;52.322;10.232;2023-05-27T05:47:43;27.17;;;8.35;;
38089;SDS011;23904;52.322;10.232;2023-05-27T05:50:09;26.98;;;9.90;;
38089;SDS011;23904;52.322;10.232;2023-05-27T05:52:35;27.42;;;10.60;;
38089;SDS011;23904;52.322;10.232;2023-05-27T05:55:00;23.00;;;8.23;;
38089;SDS011;23904;52.322;10.232;2023-05-27T05:57:26;31.30;;;8.38;;
38089;SDS011;23904;52.322;10.232;2023-05-27T05:59:56;34.78;;;9.60;;
38089;SDS011;23904;52.322;10.232;2023-05-27T06:02:22;25.33;;;9.40;;
38089;SDS011;23904;52.322;10.232;2023-05-27T06:04:47;29.25;;;8.90;;
38089;SDS011;23904;52.322;10.232;2023-05-27T06:07:13;22.42;;;8.45;;
38089;SDS011;23904;52.322;10.232;2023-05-27T06:09:38;30.23;;;8.48;;
38089;SDS011;23904;52.322;10.232;2023-05-27T06:12:04;30.00;;;8.77;;
38089;SDS011;23904;52.322;10.232;2023-05-27T06:14:31;27.35;;;9.85;;
38089;SDS011;23904;52.322;10.232;2023-05-27T06:16:57;31.35;;;10.13;;
38089;SDS011;23904;52.322;10.232;2023-05-27T06:19:22;28.85;;;9.60;;
38089;SDS011;23904;52.322;10.232;2023-05-27T06:21:48;24.30;;;9.52;;
38089;SDS011;23904;52.322;10.232;2023-05-27T06:24:13;31.77;;;9.18;;
38089;SDS011;23904;52.322;10.232;2023-05-27T06:26:39;26.88;;;9.02;;
38089;SDS011;23904;52.322;10.232;2023-05-27T06:29:05;25.42;;;9.18;;
38089;SDS011;23904;52.322;10.232;2023-05-27T06:31:30;28.85;;;9.57;;
38089;SDS011;23904;52.322;10.232;2023-05-27T06:33:58;27.02;;;9.38;;
38089;SDS011;23904;52.322;10.232;2023-05-27T06:36:23;23.08;;;9.52;;
38089;SDS011;23904;52.322;10.232;2023-05-27T06:38:49;24.83;;;9.80;;
38089;SDS011;23904;52.322;10.232;2023-05-27T06:41:15;25.50;;;8.98;;
38089;SDS011;23904;52.322;10.232;2023-05-27T06:43:41;27.25;;;9.43;;
38089;SDS011;23904;52.322;10.232;2023-05-27T06:46:07;30.98;;;10.73;;
38089;SDS011;23904;52.322;10.232;2023-05-27T06:48:33;20.77;;;9.05;;
38089;SDS011;23904;52.322;10.232;2023-05-27T06:50:59;23.02;;;9.38;;
38089;SDS011;23904;52.322;10.232;2023-05-27T06:53:24;17.02;;;7.68;;
38089;SDS011;23904;52.322;10.232;2023-05-27T06:55:50;30.45;;;8.43;;
38089;SDS011;23904;52.322;10.232;2023-05-27T06:58:16;26.17;;;8.40;;
38089;SDS011;23904;52.322;10.232;2023-05-27T07:00:41;28.90;;;8.05;;
38089;SDS011;23904;52.322;10.232;2023-05-27T07:03:07;23.88;;;8.25;;
38089;SDS011;23904;52.322;10.232;2023-05-27T07:05:32;29.83;;;7.82;;
38089;SDS011;23904;52.322;10.232;2023-05-27T07:07:58;25.67;;;8.48;;
38089;SDS011;23904;52.322;10.232;2023-05-27T07:10:23;23.02;;;8.10;;
38089;SDS011;23904;52.322;10.232;2023-05-27T07:12:49;28.65;;;7.60;;
38089;SDS011;23904;52.322;10.232;2023-05-27T07:15:14;22.23;;;7.72;;
38089;SDS011;23904;52.322;10.232;2023-05-27T07:17:40;22.98;;;7.15;;
38089;SDS011;23904;52.322;10.232;2023-05-27T07:20:05;26.60;;;6.80;;
38089;SDS011;23904;52.322;10.232;2023-05-27T07:22:32;22.20;;;6.93;;
38089;SDS011;23904;52.322;10.232;2023-05-27T07:24:57;21.88;;;6.35;;
38089;SDS011;23904;52.322;10.232;2023-05-27T07:27:23;20.10;;;6.68;;
38089;SDS011;23904;52.322;10.232;2023-05-27T07:29:48;22.33;;;6.82;;
38089;SDS011;23904;52.322;10.232;2023-05-27T07:32:14;27.90;;;6.20;;
38089;SDS011;23904;52.322;10.232;2023-05-27T07:34:39;24.42;;;6.47;;
38089;SDS011;23904;52.322;10.232;2023-05-27T07:37:05;15.20;;;5.93;;
38089;SDS011;23904;52.322;10.232;2023-05-27T07:39:30;24.58;;;7.68;;
38089;SDS011;23904;52.322;10.232;2023-05-27T07:41:56;24.45;;;6.30;;
38089;SDS011;23904;52.322;10.232;2023-05-27T07:44:21;24.58;;;6.47;;
38089;SDS011;23904;52.322;10.232;2023-05-27T07:46:47;19.92;;;6.22;;
38089;SDS011;23904;52.322;10.232;2023-05-27T07:49:13;19.52;;;5.53;;
38089;SDS011;23904;52.322;10.232;2023-05-27T07:51:39;20.55;;;5.47;;
38089;SDS011;23904;52.322;10.232;2023-05-27T07:54:05;20.05;;;6.68;;
38089;SDS011;23904;52.322;10.232;2023-05-27T07:56:31;17.90;;;6.47;;
38089;SDS011;23904;52.322;10.232;2023-05-27T07:58:56;23.92;;;6.70;;
38089;SDS011;23904;52.322;10.232;2023-05-27T08:01:22;24.77;;;5.70;;
38089;SDS011;23904;52.322;10.232;2023-05-27T08:03:47;22.27;;;6.88;;
38089;SDS011;23904;52.322;10.232;2023-05-27T08:06:13;22.52;;;6.10;;
38089;SDS011;23904;52.322;10.232;2023-05-27T08:08:40;21.95;;;5.93;;
38089;SDS011;23904;52.322;10.232;2023-05-27T08:11:05;16.10;;;5.18;;
38089;SDS011;23904;52.322;10.232;2023-05-27T08:13:31;24.88;;;5.50;;
38089;SDS011;23904;52.322;10.232;2023-05-27T08:15:56;14.38;;;5.00;;
38089;SDS011;23904;52.322;10.232;2023-05-27T08:18:22;18.55;;;6.60;;
38089;SDS011;23904;52.322;10.232;2023-05-27T08:20:48;13.25;;;3.92;;
38089;SDS011;23904;52.322;10.232;2023-05-27T08:23:14;19.00;;;4.45;;
38089;SDS011;23904;52.322;10.232;2023-05-27T08:25:40;15.02;;;4.03;;
38089;SDS011;23904;52.322;10.232;2023-05-27T08:28:05;15.65;;;4.70;;
38089;SDS011;23904;52.322;10.232;2023-05-27T08:30:31;17.70;;;5.10;;
38089;SDS011;23904;52.322;10.232;2023-05-27T08:32:57;15.35;;;5.13;;
38089;SDS011;23904;52.322;10.232;2023-05-27T08:35:23;13.00;;;5.35;;
38089;SDS011;23904;52.322;10.232;2023-05-27T08:37:49;18.17;;;4.97;;
38089;SDS011;23904;52.322;10.232;2023-05-27T08:40:17;16.98;;;5.15;;
38089;SDS011;23904;52.322;10.232;2023-05-27T08:42:45;17.23;;;4.85;;
38089;SDS011;23904;52.322;10.232;2023-05-27T08:45:12;20.67;;;5.95;;
38089;SDS011;23904;52.322;10.232;2023-05-27T08:47:38;23.20;;;5.57;;
38089;SDS011;23904;52.322;10.232;2023-05-27T08:50:05;18.42;;;5.15;;
38089;SDS011;23904;52.322;10.232;2023-05-27T08:52:32;16.23;;;5.32;;
38089;SDS011;23904;52.322;10.232;2023-05-27T08:54:58;12.60;;;4.70;;
38089;SDS011;23904;52.322;10.232;2023-05-27T08:57:27;11.05;;;4.90;;
38089;SDS011;23904;52.322;10.232;2023-05-27T08:59:54;11.10;;;4.65;;
38089;SDS011;23904;52.322;10.232;2023-05-27T09:02:21;13.57;;;4.43;;
38089;SDS011;23904;52.322;10.232;2023-05-27T09:04:48;15.52;;;5.25;;
38089;SDS011;23904;52.322;10.232;2023-05-27T09:07:14;19.35;;;5.80;;
38089;SDS011;23904;52.322;10.232;2023-05-27T09:09:41;14.48;;;5.57;;
38089;SDS011;23904;52.322;10.232;2023-05-27T09:12:07;13.18;;;4.35;;
38089;SDS011;23904;52.322;10.232;2023-05-27T09:14:36;9.30;;;3.67;;
38089;SDS011;23904;52.322;10.232;2023-05-27T09:17:06;12.75;;;4.00;;
38089;SDS011;23904;52.322;10.232;2023-05-27T09:19:33;12.80;;;4.20;;
38089;SDS011;23904;52.322;10.232;2023-05-27T09:21:59;12.73;;;4.13;;
38089;SDS011;23904;52.322;10.232;2023-05-27T09:24:26;12.02;;;3.95;;
38089;SDS011;23904;52.322;10.232;2023-05-27T09:26:52;12.10;;;4.57;;
38089;SDS011;23904;52.322;10.232;2023-05-27T09:29:19;12.10;;;4.82;;
38089;SDS011;23904;52.322;10.232;2023-05-27T09:31:45;10.25;;;3.72;;
38089;SDS011;23904;52.322;10.232;2023-05-27T09:34:11;9.55;;;3.88;;
38089;SDS011;23904;52.322;10.232;2023-05-27T09:36:42;10.80;;;3.50;;
38089;SDS011;23904;52.322;10.232;2023-05-27T09:39:09;12.60;;;4.18;;
38089;SDS011;23904;52.322;10.232;2023-05-27T09:41:37;11.27;;;3.83;;
38089;SDS011;23904;52.322;10.232;2023-05-27T09:44:06;9.48;;;3.65;;
38089;SDS011;23904;52.322;10.232;2023-05-27T09:46:33;10.50;;;4.13;;
38089;SDS011;23904;52.322;10.232;2023-05-27T09:49:00;10.43;;;4.07;;
38089;SDS011;23904;52.322;10.232;2023-05-27T09:51:27;10.85;;;3.88;;
38089;SDS011;23904;52.322;10.232;2023-05-27T09:53:54;8.50;;;3.55;;
38089;SDS011;23904;52.322;10.232;2023-05-27T09:56:23;12.23;;;4.20;;
38089;SDS011;23904;52.322;10.232;2023-05-27T09:58:56;11.07;;;3.95;;
38089;SDS011;23904;52.322;10.232;2023-05-27T10:01:26;9.25;;;3.88;;
38089;SDS011;23904;52.322;10.232;2023-05-27T10:03:54;7.75;;;3.15;;
38089;SDS011;23904;52.322;10.232;2023-05-27T10:06:23;11.65;;;4.10;;
38089;SDS011;23904;52.322;10.232;2023-05-27T10:08:50;10.60;;;3.70;;
38089;SDS011;23904;52.322;10.232;2023-05-27T10:11:17;10.23;;;3.92;;
38089;SDS011;23904;52.322;10.232;2023-05-27T10:13:44;10.50;;;3.70;;
38089;SDS011;23904;52.322;10.232;2023-05-27T10:16:18;8.73;;;3.78;;
38089;SDS011;23904;52.322;10.232;2023-05-27T10:18:48;13.40;;;4.60;;
38089;SDS011;23904;52.322;10.232;2023-05-27T10:21:19;13.30;;;3.88;;
38089;SDS011;23904;52.322;10.232;2023-05-27T10:23:52;10.52;;;4.45;;
38089;SDS011;23904;52.322;10.232;2023-05-27T10:26:31;10.48;;;3.60;;
38089;SDS011;23904;52.322;10.232;2023-05-27T10:29:08;9.40;;;3.70;;
38089;SDS011;23904;52.322;10.232;2023-05-27T10:31:35;10.48;;;3.60;;
38089;SDS011;23904;52.322;10.232;2023-05-27T10:34:09;11.45;;;3.50;;
38089;SDS011;23904;52.322;10.232;2023-05-27T10:36:35;9.00;;;3.80;;
38089;SDS011;23904;52.322;10.232;2023-05-27T10:39:17;9.18;;;3.65;;
38089;SDS011;23904;52.322;10.232;2023-05-27T10:41:48;13.52;;;3.88;;
38089;SDS011;23904;52.322;10.232;2023-05-27T10:47:09;10.13;;;3.95;;
38089;SDS011;23904;52.322;10.232;2023-05-27T10:49:39;10.35;;;3.70;;
38089;SDS011;23904;52.322;10.232;2023-05-27T10:52:09;10.98;;;4.30;;
38089;SDS011;23904;52.322;10.232;2023-05-27T10:54:41;12.20;;;5.03;;
38089;SDS011;23904;52.322;10.232;2023-05-27T10:57:09;9.23;;;3.67;;
38089;SDS011;23904;52.322;10.232;2023-05-27T10:59:54;10.98;;;3.50;;
38089;SDS011;23904;52.322;10.232;2023-05-27T11:02:21;10.65;;;3.90;;
38089;SDS011;23904;52.322;10.232;2023-05-27T11:04:50;10.93;;;3.88;;
38089;SDS011;23904;52.322;10.232;2023-05-27T11:07:19;12.15;;;3.70;;
38089;SDS011;23904;52.322;10.232;2023-05-27T11:12:17;8.82;;;3.55;;
38089;SDS011;23904;52.322;10.232;2023-05-27T11:14:51;8.50;;;3.38;;
38089;SDS011;23904;52.322;10.232;2023-05-27T11:17:20;12.27;;;3.58;;
38089;SDS011;23904;52.322;10.232;2023-05-27T11:19:47;14.80;;;4.13;;
38089;SDS011;23904;52.322;10.232;2023-05-27T11:22:14;8.90;;;3.38;;
38089;SDS011;23904;52.322;10.232;2023-05-27T11:24:42;10.65;;;3.85;;
38089;SDS011;23904;52.322;10.232;2023-05-27T11:27:08;9.80;;;3.83;;
38089;SDS011;23904;52.322;10.232;2023-05-27T11:29:36;8.48;;;3.40;;
38089;SDS011;23904;52.322;10.232;2023-05-27T11:32:03;6.70;;;2.78;;
38089;SDS011;23904;52.322;10.232;2023-05-27T11:34:36;10.85;;;3.38;;
38089;SDS011;23904;52.322;10.232;2023-05-27T11:37:02;5.60;;;3.05;;
38089;SDS011;23904;52.322;10.232;2023-05-27T11:39:29;9.73;;;3.58;;
38089;SDS011;23904;52.322;10.232;2023-05-27T11:41:56;9.30;;;3.63;;
38089;SDS011;23904;52.322;10.232;2023-05-27T11:44:22;8.48;;;3.35;;
38089;SDS011;23904;52.322;10.232;2023-05-27T11:46:50;10.07;;;3.75;;
38089;SDS011;23904;52.322;10.232;2023-05-27T11:49:17;8.40;;;3.17;;
38089;SDS011;23904;52.322;10.232;2023-05-27T11:51:47;8.98;;;3.25;;
38089;SDS011;23904;52.322;10.232;2023-05-27T11:54:19;8.18;;;3.60;;
38089;SDS011;23904;52.322;10.232;2023-05-27T11:56:49;8.30;;;4.05;;
38089;SDS011;23904;52.322;10.232;2023-05-27T11:59:16;10.05;;;3.55;;
38089;SDS011;23904;52.322;10.232;2023-05-27T12:01:43;12.68;;;3.63;;
38089;SDS011;23904;52.322;10.232;2023-05-27T12:04:09;8.40;;;3.40;;
38089;SDS011;23904;52.322;10.232;2023-05-27T12:06:36;6.95;;;3.08;;
38089;SDS011;23904;52.322;10.232;2023-05-27T12:09:05;8.90;;;3.70;;
38089;SDS011;23904;52.322;10.232;2023-05-27T12:11:32;6.85;;;3.10;;
38089;SDS011;23904;52.322;10.232;2023-05-27T12:13:58;9.20;;;3.90;;
38089;SDS011;23904;52.322;10.232;2023-05-27T12:16:24;9.70;;;3.72;;
38089;SDS011;23904;52.322;10.232;2023-05-27T12:18:49;6.68;;;3.00;;
38089;SDS011;23904;52.322;10.232;2023-05-27T12:21:15;11.48;;;4.03;;
38089;SDS011;23904;52.322;10.232;2023-05-27T12:23:41;8.15;;;3.05;;
38089;SDS011;23904;52.322;10.232;2023-05-27T12:26:08;7.18;;;2.83;;
38089;SDS011;23904;52.322;10.232;2023-05-27T12:28:35;7.78;;;3.28;;
38089;SDS011;23904;52.322;10.232;2023-05-27T12:31:01;10.20;;;3.47;;
38089;SDS011;23904;52.322;10.232;2023-05-27T12:33:27;8.10;;;3.35;;
38089;SDS011;23904;52.322;10.232;2023-05-27T12:35:53;12.10;;;3.53;;
38089;SDS011;23904;52.322;10.232;2023-05-27T12:38:19;10.50;;;3.65;;
38089;SDS011;23904;52.322;10.232;2023-05-27T12:40:44;9.50;;;3.42;;
38089;SDS011;23904;52.322;10.232;2023-05-27T12:43:10;8.95;;;3.30;;
38089;SDS011;23904;52.322;10.232;2023-05-27T12:45:35;9.45;;;3.72;;
38089;SDS011;23904;52.322;10.232;2023-05-27T12:48:01;9.05;;;4.00;;
38089;SDS011;23904;52.322;10.232;2023-05-27T12:50:27;6.10;;;2.78;;
38089;SDS011;23904;52.322;10.232;2023-05-27T12:52:53;10.35;;;3.53;;
38089;SDS011;23904;52.322;10.232;2023-05-27T12:55:19;6.47;;;3.22;;
38089;SDS011;23904;52.322;10.232;2023-05-27T12:57:49;9.68;;;3.92;;
38089;SDS011;23904;52.322;10.232;2023-05-27T13:00:17;8.27;;;3.63;;
38089;SDS011;23904;52.322;10.232;2023-05-27T13:02:44;10.50;;;4.07;;
38089;SDS011;23904;52.322;10.232;2023-05-27T13:05:12;10.00;;;3.55;;
38089;SDS011;23904;52.322;10.232;2023-05-27T13:07:39;8.88;;;3.22;;
38089;SDS011;23904;52.322;10.232;2023-05-27T13:10:07;10.05;;;3.53;;
38089;SDS011;23904;52.322;10.232;2023-05-27T13:12:43;14.40;;;4.22;;
38089;SDS011;23904;52.322;10.232;2023-05-27T13:15:08;11.80;;;4.03;;
38089;SDS011;23904;52.322;10.232;2023-05-27T13:17:35;7.50;;;3.25;;
38089;SDS011;23904;52.322;10.232;2023-05-27T13:20:01;12.18;;;3.85;;
38089;SDS011;23904;52.322;10.232;2023-05-27T13:22:27;14.02;;;3.90;;
38089;SDS011;23904;52.322;10.232;2023-05-27T13:24:53;12.18;;;3.53;;
38089;SDS011;23904;52.322;10.232;2023-05-27T13:27:19;9.60;;;3.13;;
38089;SDS011;23904;52.322;10.232;2023-05-27T13:29:44;9.57;;;3.78;;
38089;SDS011;23904;52.322;10.232;2023-05-27T13:32:10;10.30;;;3.58;;
38089;SDS011;23904;52.322;10.232;2023-05-27T13:34:35;13.68;;;4.05;;
38089;SDS011;23904;52.322;10.232;2023-05-27T13:37:01;10.80;;;3.45;;
38089;SDS011;23904;52.322;10.232;2023-05-27T13:39:27;10.65;;;3.70;;
38089;SDS011;23904;52.322;10.232;2023-05-27T13:41:53;11.02;;;4.50;;
38089;SDS011;23904;52.322;10.232;2023-05-27T13:44:18;9.38;;;3.50;;
38089;SDS011;23904;52.322;10.232;2023-05-27T13:46:44;10.95;;;3.72;;
38089;SDS011;23904;52.322;10.232;2023-05-27T13:49:09;10.43;;;3.90;;
38089;SDS011;23904;52.322;10.232;2023-05-27T13:51:42;10.18;;;3.72;;
38089;SDS011;23904;52.322;10.232;2023-05-27T13:54:08;10.52;;;3.50;;
38089;SDS011;23904;52.322;10.232;2023-05-27T13:56:34;9.65;;;3.53;;
38089;SDS011;23904;52.322;10.232;2023-05-27T13:59:00;11.45;;;4.32;;
38089;SDS011;23904;52.322;10.232;2023-05-27T14:01:28;12.27;;;3.17;;
38089;SDS011;23904;52.322;10.232;2023-05-27T14:03:54;13.10;;;3.47;;
38089;SDS011;23904;52.322;10.232;2023-05-27T14:06:20;9.15;;;3.75;;
38089;SDS011;23904;52.322;10.232;2023-05-27T14:08:45;10.32;;;4.38;;
38089;SDS011;23904;52.322;10.232;2023-05-27T14:11:11;12.77;;;3.40;;
38089;SDS011;23904;52.322;10.232;2023-05-27T14:13:37;11.10;;;3.97;;
38089;SDS011;23904;52.322;10.232;2023-05-27T14:16:02;12.25;;;3.78;;
38089;SDS011;23904;52.322;10.232;2023-05-27T14:18:28;8.60;;;3.13;;
38089;SDS011;23904;52.322;10.232;2023-05-27T14:20:54;7.60;;;2.75;;
38089;SDS011;23904;52.322;10.232;2023-05-27T14:23:19;7.57;;;3.03;;
38089;SDS011;23904;52.322;10.232;2023-05-27T14:25:45;9.18;;;2.83;;
38089;SDS011;23904;52.322;10.232;2023-05-27T14:28:10;7.85;;;3.30;;
38089;SDS011;23904;52.322;10.232;2023-05-27T14:30:36;12.45;;;3.97;;
38089;SDS011;23904;52.322;10.232;2023-05-27T14:33:05;11.52;;;3.65;;